sensor_id;sensor_type;location;lat;lon;timestamp;pressure;altitude;pressure_sealevel;temperature;humidity
43436;BME280;36399;51.444;-2.018;2023-02-21T00:00:18;101385.09;;;7.18;100.00
43436;BME280;36399;51.444;-2.018;2023-02-21T00:03:02;101385.75;;;7.13;100.00
43436;BME280;36399;51.444;-2.018;2023-02-21T00:05:47;101391.94;;;7.15;100.00
43436;BME280;36399;51.444;-2.018;2023-02-21T00:08:31;101399.75;;;7.15;100.00
43436;BME280;36399;51.444;-2.018;2023-02-21T00:11:16;101391.94;;;7.15;100.00
43436;BME280;36399;51.444;-2.018;2023-02-21T00:14:00;101397.34;;;7.19;100.00
43436;BME280;36399;51.444;-2.018;2023-02-21T00:16:45;101397.16;;;7.15;100.00
43436;BME280;36399;51.444;-2.018;2023-02-21T00:19:30;101395.50;;;7.17;100.00
43436;BME280;36399;51.444;-2.018;2023-02-21T00:22:14;101397.84;;;7.11;100.00
43436;BME280;36399;51.444;-2.018;2023-02-21T00:24:59;101396.84;;;7.07;100.00
43436;BME280;36399;51.444;-2.018;2023-02-21T00:27:43;101389.06;;;7.09;100.00
43436;BME280;36399;51.444;-2.018;2023-02-21T00:30:28;101396.13;;;7.11;100.00
43436;BME280;36399;51.444;-2.018;2023-02-21T00:33:12;101402.94;;;7.08;100.00
43436;BME280;36399;51.444;-2.018;2023-02-21T00:35:56;101396.44;;;6.98;100.00
43436;BME280;36399;51.444;-2.018;2023-02-21T00:38:41;101395.44;;;6.94;100.00
43436;BME280;36399;51.444;-2.018;2023-02-21T00:41:26;101390.78;;;6.87;100.00
43436;BME280;36399;51.444;-2.018;2023-02-21T00:44:10;101383.66;;;6.83;100.00
43436;BME280;36399;51.444;-2.018;2023-02-21T00:46:55;101393.28;;;6.84;100.00
43436;BME280;36399;51.444;-2.018;2023-02-21T00:49:39;101392.38;;;6.84;100.00
43436;BME280;36399;51.444;-2.018;2023-02-21T00:52:24;101384.75;;;6.88;100.00
43436;BME280;36399;51.444;-2.018;2023-02-21T00:55:08;101382.00;;;6.85;100.00
43436;BME280;36399;51.444;-2.018;2023-02-21T00:57:53;101380.03;;;6.80;100.00
43436;BME280;36399;51.444;-2.018;2023-02-21T01:00:37;101373.91;;;6.79;100.00
43436;BME280;36399;51.444;-2.018;2023-02-21T01:03:22;101380.97;;;6.82;100.00
43436;BME280;36399;51.444;-2.018;2023-02-21T01:06:11;101376.47;;;6.78;100.00
43436;BME280;36399;51.444;-2.018;2023-02-21T01:08:56;101382.56;;;6.78;100.00
43436;BME280;36399;51.444;-2.018;2023-02-21T01:11:40;101377.34;;;6.78;100.00
43436;BME280;36399;51.444;-2.018;2023-02-21T01:14:24;101361.69;;;6.78;100.00
43436;BME280;36399;51.444;-2.018;2023-02-21T01:17:09;101367.75;;;6.77;100.00
43436;BME280;36399;51.444;-2.018;2023-02-21T01:19:53;101367.22;;;6.86;100.00
43436;BME280;36399;51.444;-2.018;2023-02-21T01:22:38;101366.16;;;6.81;100.00
43436;BME280;36399;51.444;-2.018;2023-02-21T01:25:22;101358.38;;;6.82;100.00
43436;BME280;36399;51.444;-2.018;2023-02-21T01:28:07;101355.06;;;6.86;100.00
43436;BME280;36399;51.444;-2.018;2023-02-21T01:30:51;101345.72;;;6.91;100.00
43436;BME280;36399;51.444;-2.018;2023-02-21T01:33:38;101344.63;;;6.86;100.00
43436;BME280;36399;51.444;-2.018;2023-02-21T01:36:23;101352.47;;;6.86;100.00
43436;BME280;36399;51.444;-2.018;2023-02-21T01:39:08;101350.75;;;6.87;100.00
43436;BME280;36399;51.444;-2.018;2023-02-21T01:41:53;101343.81;;;6.87;100.00
43436;BME280;36399;51.444;-2.018;2023-02-21T01:44:43;101341.25;;;6.89;100.00
43436;BME280;36399;51.444;-2.018;2023-02-21T01:47:29;101331.13;;;6.96;100.00
43436;BME280;36399;51.444;-2.018;2023-02-21T01:50:22;101327.38;;;6.90;100.00
43436;BME280;36399;51.444;-2.018;2023-02-21T01:53:13;101330.75;;;6.87;100.00
43436;BME280;36399;51.444;-2.018;2023-02-21T01:55:59;101331.47;;;6.83;100.00
43436;BME280;36399;51.444;-2.018;2023-02-21T01:58:46;101323.75;;;6.86;100.00
43436;BME280;36399;51.444;-2.018;2023-02-21T02:01:48;101319.25;;;6.82;100.00
43436;BME280;36399;51.444;-2.018;2023-02-21T02:04:34;101320.06;;;6.81;100.00
43436;BME280;36399;51.444;-2.018;2023-02-21T02:07:19;101319.28;;;6.84;100.00
43436;BME280;36399;51.444;-2.018;2023-02-21T02:10:06;101320.19;;;6.84;100.00
43436;BME280;36399;51.444;-2.018;2023-02-21T02:38:03;101289.69;;;6.83;100.00
43436;BME280;36399;51.444;-2.018;2023-02-21T02:40:35;101286.25;;;6.84;100.00
43436;BME280;36399;51.444;-2.018;2023-02-21T02:46:10;101281.63;;;6.77;100.00
43436;BME280;36399;51.444;-2.018;2023-02-21T02:48:42;101278.38;;;6.83;100.00
43436;BME280;36399;51.444;-2.018;2023-02-21T02:51:13;101267.75;;;6.78;100.00
43436;BME280;36399;51.444;-2.018;2023-02-21T02:53:40;101260.81;;;6.79;100.00
43436;BME280;36399;51.444;-2.018;2023-02-21T02:56:09;101258.13;;;6.77;100.00
43436;BME280;36399;51.444;-2.018;2023-02-21T02:58:42;101250.31;;;6.77;100.00
43436;BME280;36399;51.444;-2.018;2023-02-21T03:09:08;101238.06;;;6.76;100.00
43436;BME280;36399;51.444;-2.018;2023-02-21T03:11:43;101246.88;;;6.78;100.00
43436;BME280;36399;51.444;-2.018;2023-02-21T03:14:16;101247.59;;;6.76;100.00
43436;BME280;36399;51.444;-2.018;2023-02-21T03:16:48;101245.69;;;6.72;100.00
43436;BME280;36399;51.444;-2.018;2023-02-21T03:19:19;101243.03;;;6.70;100.00
43436;BME280;36399;51.444;-2.018;2023-02-21T03:21:49;101236.16;;;6.72;100.00
43436;BME280;36399;51.444;-2.018;2023-02-21T03:24:17;101241.13;;;6.66;100.00
43436;BME280;36399;51.444;-2.018;2023-02-21T03:26:47;101239.34;;;6.65;100.00
43436;BME280;36399;51.444;-2.018;2023-02-21T03:29:15;101241.00;;;6.63;100.00
43436;BME280;36399;51.444;-2.018;2023-02-21T03:31:48;101240.16;;;6.64;100.00
43436;BME280;36399;51.444;-2.018;2023-02-21T03:34:19;101234.94;;;6.64;100.00
43436;BME280;36399;51.444;-2.018;2023-02-21T03:36:45;101224.47;;;6.62;100.00
43436;BME280;36399;51.444;-2.018;2023-02-21T03:39:11;101225.47;;;6.66;100.00
43436;BME280;36399;51.444;-2.018;2023-02-21T03:41:37;101220.84;;;6.59;100.00
43436;BME280;36399;51.444;-2.018;2023-02-21T03:44:03;101213.78;;;6.56;100.00
43436;BME280;36399;51.444;-2.018;2023-02-21T03:46:29;101214.91;;;6.63;100.00
43436;BME280;36399;51.444;-2.018;2023-02-21T03:48:55;101218.34;;;6.62;100.00
43436;BME280;36399;51.444;-2.018;2023-02-21T03:51:24;101211.28;;;6.59;100.00
43436;BME280;36399;51.444;-2.018;2023-02-21T03:53:50;101214.78;;;6.60;100.00
43436;BME280;36399;51.444;-2.018;2023-02-21T03:56:16;101214.72;;;6.58;100.00
43436;BME280;36399;51.444;-2.018;2023-02-21T03:58:41;101207.78;;;6.59;100.00
43436;BME280;36399;51.444;-2.018;2023-02-21T04:01:07;101208.38;;;6.52;100.00
43436;BME280;36399;51.444;-2.018;2023-02-21T04:03:33;101205.75;;;6.52;100.00
43436;BME280;36399;51.444;-2.018;2023-02-21T04:05:59;101207.47;;;6.51;100.00
43436;BME280;36399;51.444;-2.018;2023-02-21T04:08:25;101208.56;;;6.56;100.00
43436;BME280;36399;51.444;-2.018;2023-02-21T04:10:51;101189.16;;;6.50;100.00
43436;BME280;36399;51.444;-2.018;2023-02-21T04:13:17;101197.16;;;6.54;100.00
43436;BME280;36399;51.444;-2.018;2023-02-21T04:15:44;101197.09;;;6.53;100.00
43436;BME280;36399;51.444;-2.018;2023-02-21T04:18:10;101182.03;;;6.46;100.00
43436;BME280;36399;51.444;-2.018;2023-02-21T04:20:36;101190.00;;;6.49;100.00
43436;BME280;36399;51.444;-2.018;2023-02-21T04:23:02;101183.63;;;6.42;100.00
43436;BME280;36399;51.444;-2.018;2023-02-21T04:25:28;101180.91;;;6.39;100.00
43436;BME280;36399;51.444;-2.018;2023-02-21T04:27:54;101174.91;;;6.42;100.00
43436;BME280;36399;51.444;-2.018;2023-02-21T04:30:20;101171.50;;;6.43;100.00
43436;BME280;36399;51.444;-2.018;2023-02-21T04:32:46;101165.31;;;6.41;100.00
43436;BME280;36399;51.444;-2.018;2023-02-21T04:35:12;101167.81;;;6.38;100.00
43436;BME280;36399;51.444;-2.018;2023-02-21T04:37:37;101182.25;;;6.29;100.00
43436;BME280;36399;51.444;-2.018;2023-02-21T04:40:04;101176.84;;;6.25;100.00
43436;BME280;36399;51.444;-2.018;2023-02-21T04:42:30;101169.75;;;6.22;100.00
43436;BME280;36399;51.444;-2.018;2023-02-21T04:44:56;101171.53;;;6.23;100.00
43436;BME280;36399;51.444;-2.018;2023-02-21T04:47:22;101163.66;;;6.22;100.00
43436;BME280;36399;51.444;-2.018;2023-02-21T04:49:48;101163.59;;;6.20;100.00
43436;BME280;36399;51.444;-2.018;2023-02-21T04:52:17;101167.84;;;6.18;100.00
43436;BME280;36399;51.444;-2.018;2023-02-21T04:54:46;101170.53;;;6.20;100.00
43436;BME280;36399;51.444;-2.018;2023-02-21T04:57:14;101166.06;;;6.17;100.00
43436;BME280;36399;51.444;-2.018;2023-02-21T04:59:41;101169.56;;;6.18;100.00
43436;BME280;36399;51.444;-2.018;2023-02-21T05:02:07;101176.38;;;6.14;100.00
43436;BME280;36399;51.444;-2.018;2023-02-21T05:04:35;101179.81;;;6.13;100.00
43436;BME280;36399;51.444;-2.018;2023-02-21T05:07:02;101176.25;;;6.11;100.00
43436;BME280;36399;51.444;-2.018;2023-02-21T05:09:27;101176.63;;;6.20;100.00
43436;BME280;36399;51.444;-2.018;2023-02-21T05:11:53;101183.00;;;6.27;100.00
43436;BME280;36399;51.444;-2.018;2023-02-21T05:14:19;101189.53;;;6.17;100.00
43436;BME280;36399;51.444;-2.018;2023-02-21T05:16:45;101180.06;;;6.19;100.00
43436;BME280;36399;51.444;-2.018;2023-02-21T05:19:11;101180.56;;;6.11;100.00
43436;BME280;36399;51.444;-2.018;2023-02-21T05:21:37;101181.44;;;6.11;100.00
43436;BME280;36399;51.444;-2.018;2023-02-21T05:24:05;101173.56;;;6.10;100.00
43436;BME280;36399;51.444;-2.018;2023-02-21T05:26:34;101183.94;;;6.08;100.00
43436;BME280;36399;51.444;-2.018;2023-02-21T05:29:01;101183.94;;;6.08;100.00
43436;BME280;36399;51.444;-2.018;2023-02-21T05:31:28;101178.47;;;6.02;100.00
43436;BME280;36399;51.444;-2.018;2023-02-21T05:33:54;101177.63;;;6.03;100.00
43436;BME280;36399;51.444;-2.018;2023-02-21T05:36:20;101177.44;;;5.98;100.00
43436;BME280;36399;51.444;-2.018;2023-02-21T05:38:51;101166.97;;;5.97;100.00
43436;BME280;36399;51.444;-2.018;2023-02-21T05:41:18;101166.13;;;5.98;100.00
43436;BME280;36399;51.444;-2.018;2023-02-21T05:43:46;101155.78;;;5.99;100.00
43436;BME280;36399;51.444;-2.018;2023-02-21T05:46:25;101158.31;;;5.98;100.00
43436;BME280;36399;51.444;-2.018;2023-02-21T05:48:52;101154.88;;;5.99;100.00
43436;BME280;36399;51.444;-2.018;2023-02-21T05:51:18;101151.31;;;5.97;100.00
43436;BME280;36399;51.444;-2.018;2023-02-21T05:53:45;101154.31;;;6.06;100.00
43436;BME280;36399;51.444;-2.018;2023-02-21T05:56:11;101158.31;;;5.98;100.00
43436;BME280;36399;51.444;-2.018;2023-02-21T05:58:37;101151.31;;;5.97;100.00
43436;BME280;36399;51.444;-2.018;2023-02-21T06:01:03;101150.69;;;6.03;100.00
43436;BME280;36399;51.444;-2.018;2023-02-21T06:03:29;101156.91;;;6.06;100.00
43436;BME280;36399;51.444;-2.018;2023-02-21T06:05:55;101151.56;;;6.03;100.00
43436;BME280;36399;51.444;-2.018;2023-02-21T06:08:21;101157.88;;;6.08;100.00
43436;BME280;36399;51.444;-2.018;2023-02-21T06:10:47;101148.97;;;6.03;100.00
43436;BME280;36399;51.444;-2.018;2023-02-21T06:13:13;101151.56;;;6.03;100.00
43436;BME280;36399;51.444;-2.018;2023-02-21T06:15:39;101147.31;;;6.05;100.00
43436;BME280;36399;51.444;-2.018;2023-02-21T06:18:05;101144.78;;;6.07;100.00
43436;BME280;36399;51.444;-2.018;2023-02-21T06:20:31;101149.16;;;6.08;100.00
43436;BME280;36399;51.444;-2.018;2023-02-21T06:22:57;101149.91;;;6.05;100.00
43436;BME280;36399;51.444;-2.018;2023-02-21T06:25:23;101146.09;;;5.97;100.00
43436;BME280;36399;51.444;-2.018;2023-02-21T06:27:49;101145.97;;;5.94;100.00
43436;BME280;36399;51.444;-2.018;2023-02-21T06:30:15;101145.97;;;5.94;100.00
43436;BME280;36399;51.444;-2.018;2023-02-21T06:32:41;101146.69;;;5.90;100.00
43436;BME280;36399;51.444;-2.018;2023-02-21T06:35:08;101137.47;;;5.98;100.00
43436;BME280;36399;51.444;-2.018;2023-02-21T06:37:34;101141.78;;;5.97;100.00
43436;BME280;36399;51.444;-2.018;2023-02-21T06:40:03;101137.34;;;5.95;100.00
43436;BME280;36399;51.444;-2.018;2023-02-21T06:42:30;101152.03;;;5.93;100.00
43436;BME280;36399;51.444;-2.018;2023-02-21T06:44:56;101152.09;;;5.94;100.00
43436;BME280;36399;51.444;-2.018;2023-02-21T06:47:22;101149.13;;;5.87;100.00
43436;BME280;36399;51.444;-2.018;2023-02-21T06:49:48;101159.53;;;5.87;100.00
43436;BME280;36399;51.444;-2.018;2023-02-21T06:52:14;101155.16;;;5.86;100.00
43436;BME280;36399;51.444;-2.018;2023-02-21T06:54:43;101157.63;;;5.83;100.00
43436;BME280;36399;51.444;-2.018;2023-02-21T06:57:09;101161.47;;;5.91;100.00
43436;BME280;36399;51.444;-2.018;2023-02-21T06:59:35;101158.59;;;5.85;100.00
43436;BME280;36399;51.444;-2.018;2023-02-21T07:02:01;101155.03;;;5.83;100.00
43436;BME280;36399;51.444;-2.018;2023-02-21T07:04:29;101144.72;;;5.86;100.00
43436;BME280;36399;51.444;-2.018;2023-02-21T07:06:55;101146.31;;;5.82;100.00
43436;BME280;36399;51.444;-2.018;2023-02-21T07:09:21;101150.38;;;5.76;100.00
43436;BME280;36399;51.444;-2.018;2023-02-21T07:11:47;101155.28;;;5.69;100.00
43436;BME280;36399;51.444;-2.018;2023-02-21T07:14:13;101145.94;;;5.73;100.00
43436;BME280;36399;51.444;-2.018;2023-02-21T07:16:39;101136.41;;;5.74;100.00
43436;BME280;36399;51.444;-2.018;2023-02-21T07:19:05;101147.53;;;5.71;100.00
43436;BME280;36399;51.444;-2.018;2023-02-21T07:21:31;101146.13;;;5.78;100.00
43436;BME280;36399;51.444;-2.018;2023-02-21T07:23:57;101151.22;;;5.75;100.00
43436;BME280;36399;51.444;-2.018;2023-02-21T07:26:23;101139.34;;;5.81;100.00
43436;BME280;36399;51.444;-2.018;2023-02-21T07:28:49;101152.22;;;5.78;100.00
43436;BME280;36399;51.444;-2.018;2023-02-21T07:31:15;101146.13;;;5.78;100.00
43436;BME280;36399;51.444;-2.018;2023-02-21T07:33:41;101153.13;;;5.79;100.00
43436;BME280;36399;51.444;-2.018;2023-02-21T07:36:08;101159.41;;;5.64;100.00
43436;BME280;36399;51.444;-2.018;2023-02-21T07:38:34;101153.19;;;5.61;100.00
43436;BME280;36399;51.444;-2.018;2023-02-21T07:41:01;101144.47;;;5.60;100.00
43436;BME280;36399;51.444;-2.018;2023-02-21T07:43:29;101143.47;;;5.57;100.00
43436;BME280;36399;51.444;-2.018;2023-02-21T07:45:55;101149.69;;;5.60;100.00
43436;BME280;36399;51.444;-2.018;2023-02-21T07:48:22;101153.25;;;5.62;100.00
43436;BME280;36399;51.444;-2.018;2023-02-21T07:50:48;101150.09;;;5.69;100.00
43436;BME280;36399;51.444;-2.018;2023-02-21T07:53:15;101145.03;;;5.73;100.00
43436;BME280;36399;51.444;-2.018;2023-02-21T07:55:41;101144.06;;;5.90;100.00
43436;BME280;36399;51.444;-2.018;2023-02-21T07:58:07;101142.13;;;5.86;100.00
43436;BME280;36399;51.444;-2.018;2023-02-21T08:00:33;101143.91;;;5.87;100.00
43436;BME280;36399;51.444;-2.018;2023-02-21T08:02:59;101137.03;;;5.89;100.00
43436;BME280;36399;51.444;-2.018;2023-02-21T08:05:26;101141.59;;;5.93;100.00
43436;BME280;36399;51.444;-2.018;2023-02-21T08:07:52;101144.59;;;6.02;100.00
43436;BME280;36399;51.444;-2.018;2023-02-21T08:10:24;101143.91;;;5.87;100.00
43436;BME280;36399;51.444;-2.018;2023-02-21T08:12:50;101150.50;;;5.98;100.00
43436;BME280;36399;51.444;-2.018;2023-02-21T08:15:17;101154.25;;;6.05;100.00
43436;BME280;36399;51.444;-2.018;2023-02-21T08:17:43;101144.19;;;5.93;100.00
43436;BME280;36399;51.444;-2.018;2023-02-21T08:20:09;101139.00;;;5.93;100.00
43436;BME280;36399;51.444;-2.018;2023-02-21T08:22:36;101141.03;;;6.00;100.00
43436;BME280;36399;51.444;-2.018;2023-02-21T08:25:02;101137.31;;;6.16;100.00
43436;BME280;36399;51.444;-2.018;2023-02-21T08:27:28;101136.69;;;6.21;100.00
43436;BME280;36399;51.444;-2.018;2023-02-21T08:29:54;101145.22;;;6.17;100.00
43436;BME280;36399;51.444;-2.018;2023-02-21T08:32:20;101150.31;;;6.35;100.00
43436;BME280;36399;51.444;-2.018;2023-02-21T08:34:49;101155.50;;;6.14;100.00
43436;BME280;36399;51.444;-2.018;2023-02-21T08:37:15;101158.50;;;6.23;100.00
43436;BME280;36399;51.444;-2.018;2023-02-21T08:39:48;101167.97;;;6.21;100.00
43436;BME280;36399;51.444;-2.018;2023-02-21T08:42:15;101168.13;;;6.24;100.00
43436;BME280;36399;51.444;-2.018;2023-02-21T08:44:45;101165.53;;;6.24;100.00
43436;BME280;36399;51.444;-2.018;2023-02-21T08:47:13;101159.06;;;6.16;100.00
43436;BME280;36399;51.444;-2.018;2023-02-21T08:49:43;101157.94;;;6.30;100.00
43436;BME280;36399;51.444;-2.018;2023-02-21T08:52:09;101167.59;;;6.12;100.00
43436;BME280;36399;51.444;-2.018;2023-02-21T08:54:35;101165.81;;;6.11;100.00
43436;BME280;36399;51.444;-2.018;2023-02-21T08:57:01;101159.59;;;6.08;100.00
43436;BME280;36399;51.444;-2.018;2023-02-21T08:59:27;101150.31;;;6.14;100.00
43436;BME280;36399;51.444;-2.018;2023-02-21T09:02:01;101153.84;;;6.16;100.00
43436;BME280;36399;51.444;-2.018;2023-02-21T09:04:27;101147.88;;;6.19;100.00
43436;BME280;36399;51.444;-2.018;2023-02-21T09:06:53;101158.06;;;6.33;100.00
43436;BME280;36399;51.444;-2.018;2023-02-21T09:09:20;101142.50;;;6.57;100.00
43436;BME280;36399;51.444;-2.018;2023-02-21T09:11:47;101146.19;;;6.62;100.00
43436;BME280;36399;51.444;-2.018;2023-02-21T09:14:15;101125.22;;;6.82;100.00
43436;BME280;36399;51.444;-2.018;2023-02-21T09:16:41;101122.78;;;6.86;100.00
43436;BME280;36399;51.444;-2.018;2023-02-21T09:19:08;101123.00;;;6.70;100.00
43436;BME280;36399;51.444;-2.018;2023-02-21T09:21:34;101112.22;;;6.61;100.00
43436;BME280;36399;51.444;-2.018;2023-02-21T09:24:01;101110.91;;;6.72;100.00
43436;BME280;36399;51.444;-2.018;2023-02-21T09:26:30;101108.78;;;6.84;100.00
43436;BME280;36399;51.444;-2.018;2023-02-21T09:28:58;101103.09;;;6.94;100.00
43436;BME280;36399;51.444;-2.018;2023-02-21T09:31:24;101097.66;;;7.12;100.00
43436;BME280;36399;51.444;-2.018;2023-02-21T09:33:51;101094.00;;;7.31;100.00
43436;BME280;36399;51.444;-2.018;2023-02-21T09:36:17;101093.34;;;7.62;100.00
43436;BME280;36399;51.444;-2.018;2023-02-21T09:38:50;101085.25;;;7.80;100.00
43436;BME280;36399;51.444;-2.018;2023-02-21T09:41:16;101086.31;;;7.85;100.00
43436;BME280;36399;51.444;-2.018;2023-02-21T09:43:45;101086.22;;;7.82;100.00
43436;BME280;36399;51.444;-2.018;2023-02-21T09:46:38;101067.06;;;7.57;100.00
43436;BME280;36399;51.444;-2.018;2023-02-21T09:49:16;101064.88;;;7.44;100.00
43436;BME280;36399;51.444;-2.018;2023-02-21T09:51:47;101071.09;;;7.24;100.00
43436;BME280;36399;51.444;-2.018;2023-02-21T09:54:38;101062.66;;;7.31;100.00
43436;BME280;36399;51.444;-2.018;2023-02-21T09:57:12;101062.53;;;7.52;100.00
43436;BME280;36399;51.444;-2.018;2023-02-21T09:59:38;101058.09;;;7.49;100.00
43436;BME280;36399;51.444;-2.018;2023-02-21T10:15:58;101029.09;;;7.42;100.00
43436;BME280;36399;51.444;-2.018;2023-02-21T10:21:35;101018.72;;;7.70;100.00
43436;BME280;36399;51.444;-2.018;2023-02-21T10:24:18;101015.59;;;8.07;100.00
43436;BME280;36399;51.444;-2.018;2023-02-21T10:26:51;101009.78;;;8.17;100.00
43436;BME280;36399;51.444;-2.018;2023-02-21T10:29:24;101003.06;;;8.26;100.00
43436;BME280;36399;51.444;-2.018;2023-02-21T10:31:59;100998.28;;;8.38;100.00
43436;BME280;36399;51.444;-2.018;2023-02-21T10:34:29;100994.88;;;8.70;100.00
43436;BME280;36399;51.444;-2.018;2023-02-21T10:37:01;100990.59;;;9.04;100.00
43436;BME280;36399;51.444;-2.018;2023-02-21T10:39:34;100988.88;;;8.74;100.00
43436;BME280;36399;51.444;-2.018;2023-02-21T10:42:02;100980.09;;;8.72;100.00
43436;BME280;36399;51.444;-2.018;2023-02-21T10:44:33;100982.03;;;8.79;100.00
43436;BME280;36399;51.444;-2.018;2023-02-21T10:49:43;100971.84;;;8.89;100.00
43436;BME280;36399;51.444;-2.018;2023-02-21T10:52:16;100969.63;;;9.04;100.00
43436;BME280;36399;51.444;-2.018;2023-02-21T10:57:30;100959.88;;;9.31;100.00
43436;BME280;36399;51.444;-2.018;2023-02-21T10:59:56;100956.19;;;9.58;100.00
43436;BME280;36399;51.444;-2.018;2023-02-21T11:05:07;100953.38;;;9.86;100.00
43436;BME280;36399;51.444;-2.018;2023-02-21T11:07:34;100944.38;;;9.75;100.00
43436;BME280;36399;51.444;-2.018;2023-02-21T11:10:00;100948.47;;;9.29;100.00
43436;BME280;36399;51.444;-2.018;2023-02-21T11:12:27;100951.25;;;9.35;100.00
43436;BME280;36399;51.444;-2.018;2023-02-21T11:17:23;100950.16;;;9.27;100.00
43436;BME280;36399;51.444;-2.018;2023-02-21T11:19:56;100947.47;;;9.24;100.00
43436;BME280;36399;51.444;-2.018;2023-02-21T11:22:25;100950.16;;;9.27;100.00
43436;BME280;36399;51.444;-2.018;2023-02-21T11:25:04;100941.47;;;9.28;100.00
43436;BME280;36399;51.444;-2.018;2023-02-21T11:27:33;100941.31;;;9.22;100.00
43436;BME280;36399;51.444;-2.018;2023-02-21T11:30:09;100943.59;;;9.10;100.00
43436;BME280;36399;51.444;-2.018;2023-02-21T11:32:40;100945.75;;;8.92;100.00
43436;BME280;36399;51.444;-2.018;2023-02-21T11:40:42;100938.97;;;9.00;100.00
43436;BME280;36399;51.444;-2.018;2023-02-21T11:43:24;100945.72;;;8.60;100.00
43436;BME280;36399;51.444;-2.018;2023-02-21T11:48:55;100931.09;;;8.98;100.00
43436;BME280;36399;51.444;-2.018;2023-02-21T11:51:45;100932.56;;;8.89;100.00
43436;BME280;36399;51.444;-2.018;2023-02-21T11:54:11;100925.84;;;8.98;100.00
43436;BME280;36399;51.444;-2.018;2023-02-21T11:56:46;100929.28;;;9.30;100.00
43436;BME280;36399;51.444;-2.018;2023-02-21T12:10:28;100908.72;;;8.79;100.00
43436;BME280;36399;51.444;-2.018;2023-02-21T12:13:08;100911.34;;;8.79;100.00
43436;BME280;36399;51.444;-2.018;2023-02-21T12:22:31;100890.00;;;8.96;100.00
43436;BME280;36399;51.444;-2.018;2023-02-21T12:27:16;100881.28;;;8.97;100.00
43436;BME280;36399;51.444;-2.018;2023-02-21T12:40:18;100871.59;;;8.93;100.00
43436;BME280;36399;51.444;-2.018;2023-02-21T12:50:58;100864.50;;;8.57;100.00
43436;BME280;36399;51.444;-2.018;2023-02-21T12:53:32;100859.59;;;8.69;100.00
43436;BME280;36399;51.444;-2.018;2023-02-21T12:58:47;100860.63;;;8.43;100.00
43436;BME280;36399;51.444;-2.018;2023-02-21T13:01:19;100860.19;;;8.59;100.00
43436;BME280;36399;51.444;-2.018;2023-02-21T13:03:50;100842.38;;;8.77;100.00
43436;BME280;36399;51.444;-2.018;2023-02-21T13:06:37;100845.44;;;8.61;100.00
43436;BME280;36399;51.444;-2.018;2023-02-21T13:10:00;100842.78;;;8.60;100.00
43436;BME280;36399;51.444;-2.018;2023-02-21T13:12:34;100841.88;;;8.59;100.00
43436;BME280;36399;51.444;-2.018;2023-02-21T13:17:41;100839.88;;;8.49;100.00
43436;BME280;36399;51.444;-2.018;2023-02-21T13:20:14;100843.34;;;8.48;100.00
43436;BME280;36399;51.444;-2.018;2023-02-21T13:23:01;100837.41;;;8.55;100.00
43436;BME280;36399;51.444;-2.018;2023-02-21T13:28:21;100823.03;;;8.72;100.00
43436;BME280;36399;51.444;-2.018;2023-02-21T13:31:18;100813.53;;;8.76;100.00
43436;BME280;36399;51.444;-2.018;2023-02-21T13:33:50;100804.44;;;8.95;100.00
43436;BME280;36399;51.444;-2.018;2023-02-21T13:36:59;100807.19;;;9.01;100.00
43436;BME280;36399;51.444;-2.018;2023-02-21T13:39:20;100793.72;;;8.85;100.00
43436;BME280;36399;51.444;-2.018;2023-02-21T13:42:10;100782.22;;;9.15;100.00
43436;BME280;36399;51.444;-2.018;2023-02-21T13:45:14;100776.81;;;9.45;100.00
43436;BME280;36399;51.444;-2.018;2023-02-21T13:48:31;100765.78;;;9.60;100.00
43436;BME280;36399;51.444;-2.018;2023-02-21T13:50:58;100755.63;;;9.76;100.00
43436;BME280;36399;51.444;-2.018;2023-02-21T13:53:30;100762.72;;;9.80;100.00
43436;BME280;36399;51.444;-2.018;2023-02-21T13:58:41;100731.50;;;10.38;100.00
43436;BME280;36399;51.444;-2.018;2023-02-21T14:01:22;100716.44;;;10.78;100.00
43436;BME280;36399;51.444;-2.018;2023-02-21T14:07:08;100704.69;;;11.75;100.00
43436;BME280;36399;51.444;-2.018;2023-02-21T14:09:38;100692.69;;;11.27;100.00
43436;BME280;36399;51.444;-2.018;2023-02-21T14:12:05;100696.94;;;11.19;100.00
43436;BME280;36399;51.444;-2.018;2023-02-21T14:14:37;100690.84;;;11.20;100.00
43436;BME280;36399;51.444;-2.018;2023-02-21T14:17:09;100691.28;;;11.54;100.00
43436;BME280;36399;51.444;-2.018;2023-02-21T14:19:56;100679.28;;;11.77;100.00
43436;BME280;36399;51.444;-2.018;2023-02-21T14:22:27;100679.63;;;11.33;100.00
43436;BME280;36399;51.444;-2.018;2023-02-21T14:25:05;100675.06;;;11.20;100.00
43436;BME280;36399;51.444;-2.018;2023-02-21T14:27:34;100667.72;;;10.96;100.00
43436;BME280;36399;51.444;-2.018;2023-02-21T14:32:33;100668.63;;;10.97;100.00
43436;BME280;36399;51.444;-2.018;2023-02-21T14:35:00;100666.69;;;10.87;100.00
43436;BME280;36399;51.444;-2.018;2023-02-21T14:37:40;100659.44;;;10.70;100.00
43436;BME280;36399;51.444;-2.018;2023-02-21T14:43:16;100653.97;;;11.16;100.00
43436;BME280;36399;51.444;-2.018;2023-02-21T15:01:05;100633.22;;;11.35;100.00
43436;BME280;36399;51.444;-2.018;2023-02-21T15:06:19;100626.00;;;11.93;100.00
43436;BME280;36399;51.444;-2.018;2023-02-21T15:08:49;100616.91;;;11.64;100.00
43436;BME280;36399;51.444;-2.018;2023-02-21T15:11:26;100620.41;;;11.63;100.00
43436;BME280;36399;51.444;-2.018;2023-02-21T15:14:14;100624.03;;;11.74;100.00
43436;BME280;36399;51.444;-2.018;2023-02-21T15:16:53;100620.13;;;11.40;100.00
43436;BME280;36399;51.444;-2.018;2023-02-21T15:22:13;100617.59;;;10.83;100.00
43436;BME280;36399;51.444;-2.018;2023-02-21T15:24:39;100618.56;;;10.88;100.00
43436;BME280;36399;51.444;-2.018;2023-02-21T15:27:10;100612.56;;;10.95;100.00
43436;BME280;36399;51.444;-2.018;2023-02-21T15:29:38;100612.59;;;10.98;100.00
43436;BME280;36399;51.444;-2.018;2023-02-21T15:32:04;100608.50;;;11.21;100.00
43436;BME280;36399;51.444;-2.018;2023-02-21T15:34:32;100600.78;;;11.33;100.00